Cherskiy Airport


Codes: UESS/CYX
Name: Cherskiy Airport
City: Cherskiy
Country: Russia
Elevation: 20 ft.
Wikipedia:

Photos at Cherskiy Airport


   Photos courtesy of SpottingLog. You can add your own sightings and photos by signing up for a free trial today.



No photos found.

Weather at Cherskiy Airport


Time (UTC)DescriptionTempratureWindCloud coverageVisibilityPressureHumidity
21-Jun-2024 12:00Clear Sky18°C11 mph, SE6%10000m1012hPa37%
21-Jun-2024 15:00Clear Sky16°C13 mph, S5%10000m1012hPa38%
21-Jun-2024 18:00Clear Sky16°C13 mph, S4%10000m1014hPa37%
21-Jun-2024 21:00Clear Sky18°C11 mph, S2%10000m1015hPa30%
22-Jun-2024 00:00Clear Sky20°C7 mph, S1%10000m1014hPa28%
22-Jun-2024 03:00Clear Sky21°C0 mph, NE0%10000m1014hPa27%
22-Jun-2024 06:00Clear Sky21°C7 mph, N0%10000m1013hPa29%
22-Jun-2024 09:00Clear Sky20°C9 mph, N2%10000m1013hPa34%
22-Jun-2024 12:00Clear Sky17°C7 mph, N3%10000m1012hPa42%
22-Jun-2024 15:00Clear Sky15°C7 mph, N1%10000m1012hPa48%
22-Jun-2024 18:00Clear Sky16°C7 mph, N0%10000m1012hPa44%
22-Jun-2024 21:00Clear Sky19°C2 mph, N5%10000m1012hPa37%
23-Jun-2024 00:00Clear Sky21°C9 mph, S9%10000m1011hPa32%
23-Jun-2024 03:00Few Clouds23°C9 mph, SE11%10000m1010hPa28%
23-Jun-2024 06:00Clear Sky23°C9 mph, SE7%10000m1009hPa28%
23-Jun-2024 09:00Clear Sky22°C7 mph, S6%10000m1009hPa31%
23-Jun-2024 12:00Clear Sky18°C4 mph, S7%10000m1009hPa42%
23-Jun-2024 15:00Clear Sky15°C7 mph, S5%10000m1009hPa49%
23-Jun-2024 18:00Clear Sky17°C7 mph, S3%10000m1009hPa43%
23-Jun-2024 21:00Clear Sky20°C7 mph, S4%10000m1009hPa35%
24-Jun-2024 00:00Clear Sky21°C7 mph, S5%10000m1008hPa32%
24-Jun-2024 03:00Scattered Clouds20°C11 mph, S41%10000m1007hPa35%
24-Jun-2024 06:00Broken Clouds20°C16 mph, S51%10000m1008hPa38%
24-Jun-2024 09:00Broken Clouds18°C18 mph, SE61%10000m1008hPa29%
24-Jun-2024 12:00Scattered Clouds13°C18 mph, SE33%10000m1010hPa38%
24-Jun-2024 15:00Clear Sky10°C9 mph, SE0%10000m1010hPa52%
24-Jun-2024 18:00Clear Sky12°C16 mph, SE2%10000m1009hPa45%
24-Jun-2024 21:00Clear Sky15°C20 mph, SE1%10000m1009hPa43%
25-Jun-2024 00:00Clear Sky17°C22 mph, SE4%10000m1007hPa39%
25-Jun-2024 03:00Few Clouds20°C22 mph, SE14%10000m1005hPa32%
25-Jun-2024 06:00Few Clouds20°C25 mph, SE22%10000m1004hPa34%
25-Jun-2024 09:00Few Clouds18°C16 mph, SE20%10000m1005hPa38%
25-Jun-2024 12:00Few Clouds14°C16 mph, SE13%10000m1005hPa51%
25-Jun-2024 15:00Clear Sky11°C11 mph, SE1%10000m1005hPa58%
25-Jun-2024 18:00Clear Sky13°C16 mph, SE0%10000m1005hPa52%
25-Jun-2024 21:00Clear Sky16°C18 mph, SE2%10000m1004hPa44%
26-Jun-2024 00:00Clear Sky19°C16 mph, SE2%10000m1003hPa36%
26-Jun-2024 03:00Scattered Clouds21°C18 mph, SE26%10000m1001hPa31%
26-Jun-2024 06:00Broken Clouds21°C16 mph, SE56%10000m1000hPa30%
26-Jun-2024 09:00Overcast Clouds19°C4 mph, SW88%10000m1001hPa37%